sensor_id;sensor_type;location;lat;lon;timestamp;temperature;humidity
11599;DHT22;5855;48.840;9.188;2023-04-30T00:01:31;12.10;99.90
11599;DHT22;5855;48.840;9.188;2023-04-30T00:03:58;12.10;99.90
11599;DHT22;5855;48.840;9.188;2023-04-30T00:06:25;12.10;99.90
11599;DHT22;5855;48.840;9.188;2023-04-30T00:08:52;12.10;99.90
11599;DHT22;5855;48.840;9.188;2023-04-30T00:11:19;12.10;99.90
11599;DHT22;5855;48.840;9.188;2023-04-30T00:13:47;12.10;99.90
11599;DHT22;5855;48.840;9.188;2023-04-30T00:16:14;12.10;99.90
11599;DHT22;5855;48.840;9.188;2023-04-30T00:18:41;12.10;99.90
11599;DHT22;5855;48.840;9.188;2023-04-30T00:21:08;12.10;99.90
11599;DHT22;5855;48.840;9.188;2023-04-30T00:23:34;12.10;99.90
11599;DHT22;5855;48.840;9.188;2023-04-30T00:26:01;12.10;99.90
11599;DHT22;5855;48.840;9.188;2023-04-30T00:28:28;12.10;99.90
11599;DHT22;5855;48.840;9.188;2023-04-30T00:30:56;12.10;99.90
11599;DHT22;5855;48.840;9.188;2023-04-30T00:33:23;12.00;99.90
11599;DHT22;5855;48.840;9.188;2023-04-30T00:35:50;12.00;99.90
11599;DHT22;5855;48.840;9.188;2023-04-30T00:38:17;12.00;99.90
11599;DHT22;5855;48.840;9.188;2023-04-30T00:40:44;12.00;99.90
11599;DHT22;5855;48.840;9.188;2023-04-30T00:43:11;12.00;99.90
11599;DHT22;5855;48.840;9.188;2023-04-30T00:45:38;11.90;99.90
11599;DHT22;5855;48.840;9.188;2023-04-30T00:48:08;12.00;99.90
11599;DHT22;5855;48.840;9.188;2023-04-30T00:50:35;11.90;99.90
11599;DHT22;5855;48.840;9.188;2023-04-30T00:53:02;11.90;99.90
11599;DHT22;5855;48.840;9.188;2023-04-30T00:55:30;11.90;99.90
11599;DHT22;5855;48.840;9.188;2023-04-30T00:57:57;11.90;99.90
11599;DHT22;5855;48.840;9.188;2023-04-30T01:00:26;11.90;99.90
11599;DHT22;5855;48.840;9.188;2023-04-30T01:02:54;11.80;99.90
11599;DHT22;5855;48.840;9.188;2023-04-30T01:05:22;11.90;99.90
11599;DHT22;5855;48.840;9.188;2023-04-30T01:07:50;11.80;99.90
11599;DHT22;5855;48.840;9.188;2023-04-30T01:10:18;11.80;99.90
11599;DHT22;5855;48.840;9.188;2023-04-30T01:12:54;11.80;99.90
11599;DHT22;5855;48.840;9.188;2023-04-30T01:15:27;11.90;99.90
11599;DHT22;5855;48.840;9.188;2023-04-30T01:18:03;11.80;99.90
11599;DHT22;5855;48.840;9.188;2023-04-30T01:20:33;11.80;99.90
11599;DHT22;5855;48.840;9.188;2023-04-30T01:23:10;11.80;99.90
11599;DHT22;5855;48.840;9.188;2023-04-30T01:26:01;11.80;99.90
11599;DHT22;5855;48.840;9.188;2023-04-30T01:28:34;11.80;99.90
11599;DHT22;5855;48.840;9.188;2023-04-30T01:31:02;11.70;99.90
11599;DHT22;5855;48.840;9.188;2023-04-30T01:33:28;11.70;99.90
11599;DHT22;5855;48.840;9.188;2023-04-30T01:36:22;11.70;99.90
11599;DHT22;5855;48.840;9.188;2023-04-30T01:39:13;11.70;99.90
11599;DHT22;5855;48.840;9.188;2023-04-30T01:41:50;11.70;99.90
11599;DHT22;5855;48.840;9.188;2023-04-30T01:44:38;11.60;99.90
11599;DHT22;5855;48.840;9.188;2023-04-30T01:47:08;11.70;99.90
11599;DHT22;5855;48.840;9.188;2023-04-30T01:49:53;11.60;99.90
11599;DHT22;5855;48.840;9.188;2023-04-30T01:52:29;11.60;99.90
11599;DHT22;5855;48.840;9.188;2023-04-30T01:55:01;11.60;99.90
11599;DHT22;5855;48.840;9.188;2023-04-30T01:57:33;11.60;99.90
11599;DHT22;5855;48.840;9.188;2023-04-30T02:00:04;11.50;99.90
11599;DHT22;5855;48.840;9.188;2023-04-30T02:02:33;11.50;99.90
11599;DHT22;5855;48.840;9.188;2023-04-30T02:05:00;11.50;99.90
11599;DHT22;5855;48.840;9.188;2023-04-30T02:07:36;11.50;99.90
11599;DHT22;5855;48.840;9.188;2023-04-30T02:10:04;11.50;99.90
11599;DHT22;5855;48.840;9.188;2023-04-30T02:12:31;11.50;99.90
11599;DHT22;5855;48.840;9.188;2023-04-30T02:14:58;11.40;99.90
11599;DHT22;5855;48.840;9.188;2023-04-30T02:17:26;11.40;99.90
11599;DHT22;5855;48.840;9.188;2023-04-30T02:19:53;11.40;99.90
11599;DHT22;5855;48.840;9.188;2023-04-30T02:22:20;11.40;99.90
11599;DHT22;5855;48.840;9.188;2023-04-30T02:24:46;11.40;99.90
11599;DHT22;5855;48.840;9.188;2023-04-30T02:27:13;11.30;99.90
11599;DHT22;5855;48.840;9.188;2023-04-30T02:29:40;11.30;99.90
11599;DHT22;5855;48.840;9.188;2023-04-30T02:32:07;11.30;99.90
11599;DHT22;5855;48.840;9.188;2023-04-30T02:34:35;11.30;99.90
11599;DHT22;5855;48.840;9.188;2023-04-30T02:37:04;11.20;99.90
11599;DHT22;5855;48.840;9.188;2023-04-30T02:39:31;11.20;99.90
11599;DHT22;5855;48.840;9.188;2023-04-30T02:41:58;11.10;99.90
11599;DHT22;5855;48.840;9.188;2023-04-30T02:44:25;11.10;99.90
11599;DHT22;5855;48.840;9.188;2023-04-30T02:46:52;11.10;99.90
11599;DHT22;5855;48.840;9.188;2023-04-30T02:49:19;11.10;99.90
11599;DHT22;5855;48.840;9.188;2023-04-30T02:51:48;11.10;99.90
11599;DHT22;5855;48.840;9.188;2023-04-30T02:54:15;11.10;99.90
11599;DHT22;5855;48.840;9.188;2023-04-30T02:56:42;11.10;99.90
11599;DHT22;5855;48.840;9.188;2023-04-30T02:59:09;11.10;99.90
11599;DHT22;5855;48.840;9.188;2023-04-30T03:01:36;11.10;99.90
11599;DHT22;5855;48.840;9.188;2023-04-30T03:04:03;11.00;99.90
11599;DHT22;5855;48.840;9.188;2023-04-30T03:06:30;11.00;99.90
11599;DHT22;5855;48.840;9.188;2023-04-30T03:08:59;11.00;99.90
11599;DHT22;5855;48.840;9.188;2023-04-30T03:11:26;11.00;99.90
11599;DHT22;5855;48.840;9.188;2023-04-30T03:13:53;10.90;99.90
11599;DHT22;5855;48.840;9.188;2023-04-30T03:16:20;10.90;99.90
11599;DHT22;5855;48.840;9.188;2023-04-30T03:18:48;10.90;99.90
11599;DHT22;5855;48.840;9.188;2023-04-30T03:21:14;10.90;99.90
11599;DHT22;5855;48.840;9.188;2023-04-30T03:23:41;10.90;99.90
11599;DHT22;5855;48.840;9.188;2023-04-30T03:26:11;10.90;99.90
11599;DHT22;5855;48.840;9.188;2023-04-30T03:28:38;10.90;99.90
11599;DHT22;5855;48.840;9.188;2023-04-30T03:31:05;10.80;99.90
11599;DHT22;5855;48.840;9.188;2023-04-30T03:33:32;10.80;99.90
11599;DHT22;5855;48.840;9.188;2023-04-30T03:35:58;10.70;99.90
11599;DHT22;5855;48.840;9.188;2023-04-30T03:38:25;10.70;99.90
11599;DHT22;5855;48.840;9.188;2023-04-30T03:40:52;10.70;99.90
11599;DHT22;5855;48.840;9.188;2023-04-30T03:43:22;10.70;99.90
11599;DHT22;5855;48.840;9.188;2023-04-30T03:45:49;10.70;99.90
11599;DHT22;5855;48.840;9.188;2023-04-30T03:48:17;10.70;99.90
11599;DHT22;5855;48.840;9.188;2023-04-30T03:50:44;10.60;99.90
11599;DHT22;5855;48.840;9.188;2023-04-30T03:53:10;10.60;99.90
11599;DHT22;5855;48.840;9.188;2023-04-30T03:55:37;10.60;99.90
11599;DHT22;5855;48.840;9.188;2023-04-30T03:58:04;10.50;99.90
11599;DHT22;5855;48.840;9.188;2023-04-30T04:00:33;10.50;99.90
11599;DHT22;5855;48.840;9.188;2023-04-30T04:03:01;10.50;99.90
11599;DHT22;5855;48.840;9.188;2023-04-30T04:05:28;10.50;99.90
11599;DHT22;5855;48.840;9.188;2023-04-30T04:07:54;10.50;99.90
11599;DHT22;5855;48.840;9.188;2023-04-30T04:10:21;10.40;99.90
11599;DHT22;5855;48.840;9.188;2023-04-30T04:12:48;10.50;99.90
11599;DHT22;5855;48.840;9.188;2023-04-30T04:15:15;10.50;99.90
11599;DHT22;5855;48.840;9.188;2023-04-30T04:17:43;10.50;99.90
11599;DHT22;5855;48.840;9.188;2023-04-30T04:20:11;10.50;99.90
11599;DHT22;5855;48.840;9.188;2023-04-30T04:22:39;10.50;99.90
11599;DHT22;5855;48.840;9.188;2023-04-30T04:25:07;10.60;99.90
11599;DHT22;5855;48.840;9.188;2023-04-30T04:27:34;10.60;99.90
11599;DHT22;5855;48.840;9.188;2023-04-30T04:30:01;10.60;99.90
11599;DHT22;5855;48.840;9.188;2023-04-30T04:32:28;10.60;99.90
11599;DHT22;5855;48.840;9.188;2023-04-30T04:34:58;10.70;99.90
11599;DHT22;5855;48.840;9.188;2023-04-30T04:37:25;10.70;99.90
11599;DHT22;5855;48.840;9.188;2023-04-30T04:39:52;10.70;99.90
11599;DHT22;5855;48.840;9.188;2023-04-30T04:42:19;10.70;99.90
11599;DHT22;5855;48.840;9.188;2023-04-30T04:44:46;10.80;99.90
11599;DHT22;5855;48.840;9.188;2023-04-30T04:47:13;10.80;99.90
11599;DHT22;5855;48.840;9.188;2023-04-30T04:49:41;10.80;99.90
11599;DHT22;5855;48.840;9.188;2023-04-30T04:52:09;10.90;99.90
11599;DHT22;5855;48.840;9.188;2023-04-30T04:54:36;11.00;99.90
11599;DHT22;5855;48.840;9.188;2023-04-30T04:57:03;11.00;99.90
11599;DHT22;5855;48.840;9.188;2023-04-30T04:59:29;11.00;99.90
11599;DHT22;5855;48.840;9.188;2023-04-30T05:01:56;11.10;99.90
11599;DHT22;5855;48.840;9.188;2023-04-30T05:04:25;11.10;99.90
11599;DHT22;5855;48.840;9.188;2023-04-30T05:06:52;11.10;99.90
11599;DHT22;5855;48.840;9.188;2023-04-30T05:09:20;11.10;99.90
11599;DHT22;5855;48.840;9.188;2023-04-30T05:11:47;11.20;99.90
11599;DHT22;5855;48.840;9.188;2023-04-30T05:14:14;11.20;99.90
11599;DHT22;5855;48.840;9.188;2023-04-30T05:16:41;11.30;99.90
11599;DHT22;5855;48.840;9.188;2023-04-30T05:19:08;11.30;99.90
11599;DHT22;5855;48.840;9.188;2023-04-30T05:21:34;11.30;99.90
11599;DHT22;5855;48.840;9.188;2023-04-30T05:24:02;11.40;99.90
11599;DHT22;5855;48.840;9.188;2023-04-30T05:26:30;11.40;99.90
11599;DHT22;5855;48.840;9.188;2023-04-30T05:28:57;11.50;99.90
11599;DHT22;5855;48.840;9.188;2023-04-30T05:31:25;11.60;99.90
11599;DHT22;5855;48.840;9.188;2023-04-30T05:33:52;11.70;99.90
11599;DHT22;5855;48.840;9.188;2023-04-30T05:36:19;11.80;99.90
11599;DHT22;5855;48.840;9.188;2023-04-30T05:38:46;11.90;99.90
11599;DHT22;5855;48.840;9.188;2023-04-30T05:41:13;11.90;99.90
11599;DHT22;5855;48.840;9.188;2023-04-30T05:43:41;12.00;99.90
11599;DHT22;5855;48.840;9.188;2023-04-30T05:46:08;12.10;99.90
11599;DHT22;5855;48.840;9.188;2023-04-30T05:48:35;12.20;99.90
11599;DHT22;5855;48.840;9.188;2023-04-30T05:51:05;12.30;99.90
11599;DHT22;5855;48.840;9.188;2023-04-30T05:53:32;12.30;99.90
11599;DHT22;5855;48.840;9.188;2023-04-30T05:55:59;12.40;99.90
11599;DHT22;5855;48.840;9.188;2023-04-30T05:58:25;12.40;99.90
11599;DHT22;5855;48.840;9.188;2023-04-30T06:00:54;12.40;99.90
11599;DHT22;5855;48.840;9.188;2023-04-30T06:03:24;12.60;99.90
11599;DHT22;5855;48.840;9.188;2023-04-30T06:05:51;12.60;99.90
11599;DHT22;5855;48.840;9.188;2023-04-30T06:08:18;12.70;99.90
11599;DHT22;5855;48.840;9.188;2023-04-30T06:10:47;12.80;99.90
11599;DHT22;5855;48.840;9.188;2023-04-30T06:13:14;12.90;99.90
11599;DHT22;5855;48.840;9.188;2023-04-30T06:15:41;13.00;99.90
11599;DHT22;5855;48.840;9.188;2023-04-30T06:18:11;13.00;99.90
11599;DHT22;5855;48.840;9.188;2023-04-30T06:20:38;13.20;99.90
11599;DHT22;5855;48.840;9.188;2023-04-30T06:23:05;13.30;99.90
11599;DHT22;5855;48.840;9.188;2023-04-30T06:25:32;13.50;99.90
11599;DHT22;5855;48.840;9.188;2023-04-30T06:27:59;13.50;99.90
11599;DHT22;5855;48.840;9.188;2023-04-30T06:30:26;13.60;99.90
11599;DHT22;5855;48.840;9.188;2023-04-30T06:32:54;13.80;99.90
11599;DHT22;5855;48.840;9.188;2023-04-30T06:35:23;13.90;99.90
11599;DHT22;5855;48.840;9.188;2023-04-30T06:37:50;14.00;99.90
11599;DHT22;5855;48.840;9.188;2023-04-30T06:40:16;14.00;99.90
11599;DHT22;5855;48.840;9.188;2023-04-30T06:42:44;14.30;99.90
11599;DHT22;5855;48.840;9.188;2023-04-30T06:45:13;14.40;99.90
11599;DHT22;5855;48.840;9.188;2023-04-30T06:47:40;14.60;99.90
11599;DHT22;5855;48.840;9.188;2023-04-30T06:50:07;14.70;99.90
11599;DHT22;5855;48.840;9.188;2023-04-30T06:52:36;14.90;99.90
11599;DHT22;5855;48.840;9.188;2023-04-30T06:55:03;15.00;99.90
11599;DHT22;5855;48.840;9.188;2023-04-30T06:57:30;15.10;99.90
11599;DHT22;5855;48.840;9.188;2023-04-30T06:59:57;15.20;99.90
11599;DHT22;5855;48.840;9.188;2023-04-30T07:02:25;15.30;99.90
11599;DHT22;5855;48.840;9.188;2023-04-30T07:04:52;15.40;99.90
11599;DHT22;5855;48.840;9.188;2023-04-30T07:07:20;15.60;99.90
11599;DHT22;5855;48.840;9.188;2023-04-30T07:09:49;15.70;99.90
11599;DHT22;5855;48.840;9.188;2023-04-30T07:12:16;15.90;99.90
11599;DHT22;5855;48.840;9.188;2023-04-30T07:14:43;16.10;99.90
11599;DHT22;5855;48.840;9.188;2023-04-30T07:17:11;16.10;99.90
11599;DHT22;5855;48.840;9.188;2023-04-30T07:19:38;16.20;99.90
11599;DHT22;5855;48.840;9.188;2023-04-30T07:22:09;16.30;99.90
11599;DHT22;5855;48.840;9.188;2023-04-30T07:24:36;16.50;99.90
11599;DHT22;5855;48.840;9.188;2023-04-30T07:27:10;16.60;99.90
11599;DHT22;5855;48.840;9.188;2023-04-30T07:29:38;16.70;99.90
11599;DHT22;5855;48.840;9.188;2023-04-30T07:32:08;16.70;99.90
11599;DHT22;5855;48.840;9.188;2023-04-30T07:34:35;16.80;99.90
11599;DHT22;5855;48.840;9.188;2023-04-30T07:37:08;16.80;99.90
11599;DHT22;5855;48.840;9.188;2023-04-30T07:39:38;16.70;99.90
11599;DHT22;5855;48.840;9.188;2023-04-30T07:42:12;16.80;99.90
11599;DHT22;5855;48.840;9.188;2023-04-30T07:44:38;17.00;99.90
11599;DHT22;5855;48.840;9.188;2023-04-30T07:47:08;17.00;99.90
11599;DHT22;5855;48.840;9.188;2023-04-30T07:49:35;17.00;99.90
11599;DHT22;5855;48.840;9.188;2023-04-30T07:52:03;17.00;99.90
11599;DHT22;5855;48.840;9.188;2023-04-30T07:54:37;17.20;99.90
11599;DHT22;5855;48.840;9.188;2023-04-30T07:57:04;17.20;99.90
11599;DHT22;5855;48.840;9.188;2023-04-30T07:59:37;17.20;99.90
11599;DHT22;5855;48.840;9.188;2023-04-30T08:02:27;17.30;99.90
11599;DHT22;5855;48.840;9.188;2023-04-30T08:05:08;17.20;99.90
11599;DHT22;5855;48.840;9.188;2023-04-30T08:07:36;17.40;99.90
11599;DHT22;5855;48.840;9.188;2023-04-30T08:10:05;17.50;99.90
11599;DHT22;5855;48.840;9.188;2023-04-30T08:12:36;17.70;99.90
11599;DHT22;5855;48.840;9.188;2023-04-30T08:15:08;17.90;99.90
11599;DHT22;5855;48.840;9.188;2023-04-30T08:17:38;18.10;99.90
11599;DHT22;5855;48.840;9.188;2023-04-30T08:20:06;18.30;99.90
11599;DHT22;5855;48.840;9.188;2023-04-30T08:22:40;18.50;99.90
11599;DHT22;5855;48.840;9.188;2023-04-30T08:25:09;18.40;99.90
11599;DHT22;5855;48.840;9.188;2023-04-30T08:27:38;18.50;99.90
11599;DHT22;5855;48.840;9.188;2023-04-30T08:30:10;18.70;99.90
11599;DHT22;5855;48.840;9.188;2023-04-30T08:32:39;18.80;99.90
11599;DHT22;5855;48.840;9.188;2023-04-30T08:35:09;18.70;99.90
11599;DHT22;5855;48.840;9.188;2023-04-30T08:38:08;18.90;99.90
11599;DHT22;5855;48.840;9.188;2023-04-30T08:40:35;18.90;99.90
11599;DHT22;5855;48.840;9.188;2023-04-30T08:43:07;19.10;99.90
11599;DHT22;5855;48.840;9.188;2023-04-30T08:45:38;19.20;99.90
11599;DHT22;5855;48.840;9.188;2023-04-30T08:48:09;19.10;99.50
11599;DHT22;5855;48.840;9.188;2023-04-30T08:50:38;19.00;99.90
11599;DHT22;5855;48.840;9.188;2023-04-30T08:53:07;19.00;99.10
11599;DHT22;5855;48.840;9.188;2023-04-30T08:55:34;18.70;97.70
11599;DHT22;5855;48.840;9.188;2023-04-30T08:58:00;18.70;97.80
11599;DHT22;5855;48.840;9.188;2023-04-30T09:00:30;18.80;96.90
11599;DHT22;5855;48.840;9.188;2023-04-30T09:03:01;18.70;97.40
11599;DHT22;5855;48.840;9.188;2023-04-30T09:05:28;18.70;97.80
11599;DHT22;5855;48.840;9.188;2023-04-30T09:07:55;18.70;98.00
11599;DHT22;5855;48.840;9.188;2023-04-30T09:10:23;18.70;98.50
11599;DHT22;5855;48.840;9.188;2023-04-30T09:13:00;18.60;99.10
11599;DHT22;5855;48.840;9.188;2023-04-30T09:15:27;18.50;98.90
11599;DHT22;5855;48.840;9.188;2023-04-30T09:18:10;18.60;98.90
11599;DHT22;5855;48.840;9.188;2023-04-30T09:20:37;18.60;99.90
11599;DHT22;5855;48.840;9.188;2023-04-30T09:23:18;18.70;99.90
11599;DHT22;5855;48.840;9.188;2023-04-30T09:25:45;19.00;99.20
11599;DHT22;5855;48.840;9.188;2023-04-30T09:28:13;19.20;98.90
11599;DHT22;5855;48.840;9.188;2023-04-30T09:30:41;19.50;98.90
11599;DHT22;5855;48.840;9.188;2023-04-30T09:33:09;19.80;98.60
11599;DHT22;5855;48.840;9.188;2023-04-30T09:35:37;20.10;98.20
11599;DHT22;5855;48.840;9.188;2023-04-30T09:38:04;20.50;97.90
11599;DHT22;5855;48.840;9.188;2023-04-30T09:40:36;20.60;95.30
11599;DHT22;5855;48.840;9.188;2023-04-30T09:43:05;20.70;93.60
11599;DHT22;5855;48.840;9.188;2023-04-30T09:45:39;20.70;92.90
11599;DHT22;5855;48.840;9.188;2023-04-30T09:48:09;20.80;92.20
11599;DHT22;5855;48.840;9.188;2023-04-30T09:50:37;20.90;92.50
11599;DHT22;5855;48.840;9.188;2023-04-30T09:53:05;20.70;92.80
11599;DHT22;5855;48.840;9.188;2023-04-30T09:55:34;20.60;93.30
11599;DHT22;5855;48.840;9.188;2023-04-30T09:58:04;20.40;93.00
11599;DHT22;5855;48.840;9.188;2023-04-30T10:00:32;20.30;92.50
11599;DHT22;5855;48.840;9.188;2023-04-30T10:03:03;20.30;93.30
11599;DHT22;5855;48.840;9.188;2023-04-30T10:05:35;20.20;93.60
11599;DHT22;5855;48.840;9.188;2023-04-30T10:08:04;20.20;92.90
11599;DHT22;5855;48.840;9.188;2023-04-30T10:10:32;20.40;92.40
11599;DHT22;5855;48.840;9.188;2023-04-30T10:13:03;20.40;92.00
11599;DHT22;5855;48.840;9.188;2023-04-30T10:15:38;20.50;93.10
11599;DHT22;5855;48.840;9.188;2023-04-30T10:18:10;20.50;93.10
11599;DHT22;5855;48.840;9.188;2023-04-30T10:20:39;20.50;92.30
11599;DHT22;5855;48.840;9.188;2023-04-30T10:23:08;20.50;91.40
11599;DHT22;5855;48.840;9.188;2023-04-30T10:25:37;20.40;90.90
11599;DHT22;5855;48.840;9.188;2023-04-30T10:28:07;20.40;91.20
11599;DHT22;5855;48.840;9.188;2023-04-30T10:30:34;20.40;91.00
11599;DHT22;5855;48.840;9.188;2023-04-30T10:33:09;20.30;90.00
11599;DHT22;5855;48.840;9.188;2023-04-30T10:35:45;20.40;89.90
11599;DHT22;5855;48.840;9.188;2023-04-30T10:38:17;20.50;90.40
11599;DHT22;5855;48.840;9.188;2023-04-30T10:40:46;20.70;90.30
11599;DHT22;5855;48.840;9.188;2023-04-30T10:43:13;21.10;91.10
11599;DHT22;5855;48.840;9.188;2023-04-30T10:45:43;21.60;87.40
11599;DHT22;5855;48.840;9.188;2023-04-30T10:48:10;21.70;85.10
11599;DHT22;5855;48.840;9.188;2023-04-30T10:50:43;21.90;85.10
11599;DHT22;5855;48.840;9.188;2023-04-30T10:53:12;21.80;85.50
11599;DHT22;5855;48.840;9.188;2023-04-30T10:55:47;21.60;84.00
11599;DHT22;5855;48.840;9.188;2023-04-30T10:58:25;21.60;85.70
11599;DHT22;5855;48.840;9.188;2023-04-30T11:01:02;21.50;85.20
11599;DHT22;5855;48.840;9.188;2023-04-30T11:03:30;21.50;85.40
11599;DHT22;5855;48.840;9.188;2023-04-30T11:05:59;21.60;85.70
11599;DHT22;5855;48.840;9.188;2023-04-30T11:08:32;21.50;85.00
11599;DHT22;5855;48.840;9.188;2023-04-30T11:11:00;21.50;83.90
11599;DHT22;5855;48.840;9.188;2023-04-30T11:13:27;21.40;83.80
11599;DHT22;5855;48.840;9.188;2023-04-30T11:15:54;21.50;85.10
11599;DHT22;5855;48.840;9.188;2023-04-30T11:18:28;21.70;83.00
11599;DHT22;5855;48.840;9.188;2023-04-30T11:20:56;21.70;83.80
11599;DHT22;5855;48.840;9.188;2023-04-30T11:23:28;21.40;83.40
11599;DHT22;5855;48.840;9.188;2023-04-30T11:25:55;21.20;85.50
11599;DHT22;5855;48.840;9.188;2023-04-30T11:28:26;21.30;85.60
11599;DHT22;5855;48.840;9.188;2023-04-30T11:30:59;21.30;86.20
11599;DHT22;5855;48.840;9.188;2023-04-30T11:33:27;21.30;86.20
11599;DHT22;5855;48.840;9.188;2023-04-30T11:36:39;21.30;86.90
11599;DHT22;5855;48.840;9.188;2023-04-30T11:39:11;21.40;85.90
11599;DHT22;5855;48.840;9.188;2023-04-30T11:44:26;21.10;85.80
11599;DHT22;5855;48.840;9.188;2023-04-30T11:46:53;21.10;86.50
11599;DHT22;5855;48.840;9.188;2023-04-30T11:49:20;21.00;86.60
11599;DHT22;5855;48.840;9.188;2023-04-30T11:51:48;21.10;87.80
11599;DHT22;5855;48.840;9.188;2023-04-30T11:54:18;21.20;86.00
11599;DHT22;5855;48.840;9.188;2023-04-30T11:56:46;21.30;86.20
11599;DHT22;5855;48.840;9.188;2023-04-30T11:59:14;21.60;82.50
11599;DHT22;5855;48.840;9.188;2023-04-30T12:01:42;21.70;81.50
11599;DHT22;5855;48.840;9.188;2023-04-30T12:04:09;21.70;80.70
11599;DHT22;5855;48.840;9.188;2023-04-30T12:06:36;21.80;80.50
11599;DHT22;5855;48.840;9.188;2023-04-30T12:09:03;21.70;80.60
11599;DHT22;5855;48.840;9.188;2023-04-30T12:11:34;21.70;82.70
11599;DHT22;5855;48.840;9.188;2023-04-30T12:14:02;21.20;80.00
11599;DHT22;5855;48.840;9.188;2023-04-30T12:16:42;21.00;84.40
11599;DHT22;5855;48.840;9.188;2023-04-30T12:19:13;20.90;86.50
11599;DHT22;5855;48.840;9.188;2023-04-30T12:21:41;20.80;86.40
11599;DHT22;5855;48.840;9.188;2023-04-30T12:24:11;20.70;87.40
11599;DHT22;5855;48.840;9.188;2023-04-30T12:26:40;20.60;84.40
11599;DHT22;5855;48.840;9.188;2023-04-30T12:29:08;20.40;85.70
11599;DHT22;5855;48.840;9.188;2023-04-30T12:31:36;20.30;85.50
11599;DHT22;5855;48.840;9.188;2023-04-30T12:34:04;20.40;86.10
11599;DHT22;5855;48.840;9.188;2023-04-30T12:36:32;20.30;86.60
11599;DHT22;5855;48.840;9.188;2023-04-30T12:39:08;20.40;87.10
11599;DHT22;5855;48.840;9.188;2023-04-30T12:41:38;20.30;87.30
11599;DHT22;5855;48.840;9.188;2023-04-30T12:44:17;20.40;87.70
11599;DHT22;5855;48.840;9.188;2023-04-30T12:46:45;20.40;85.60
11599;DHT22;5855;48.840;9.188;2023-04-30T12:49:23;20.50;84.50
11599;DHT22;5855;48.840;9.188;2023-04-30T12:51:50;20.50;84.10
11599;DHT22;5855;48.840;9.188;2023-04-30T12:54:24;20.60;84.70
11599;DHT22;5855;48.840;9.188;2023-04-30T12:56:58;20.60;82.50
11599;DHT22;5855;48.840;9.188;2023-04-30T12:59:28;20.50;82.30
11599;DHT22;5855;48.840;9.188;2023-04-30T13:01:54;20.30;83.60
11599;DHT22;5855;48.840;9.188;2023-04-30T13:04:30;20.20;83.90
11599;DHT22;5855;48.840;9.188;2023-04-30T13:06:57;20.30;84.30
11599;DHT22;5855;48.840;9.188;2023-04-30T13:09:24;20.40;84.40
11599;DHT22;5855;48.840;9.188;2023-04-30T13:11:51;20.40;83.90
11599;DHT22;5855;48.840;9.188;2023-04-30T13:14:18;20.40;82.60
11599;DHT22;5855;48.840;9.188;2023-04-30T13:16:47;20.50;83.10
11599;DHT22;5855;48.840;9.188;2023-04-30T13:19:14;20.50;83.60
11599;DHT22;5855;48.840;9.188;2023-04-30T13:21:40;20.60;83.60
11599;DHT22;5855;48.840;9.188;2023-04-30T13:24:07;20.60;83.00
11599;DHT22;5855;48.840;9.188;2023-04-30T13:26:34;20.80;83.80
11599;DHT22;5855;48.840;9.188;2023-04-30T13:29:01;20.90;82.70
11599;DHT22;5855;48.840;9.188;2023-04-30T13:31:28;21.00;82.40
11599;DHT22;5855;48.840;9.188;2023-04-30T13:33:56;21.00;82.70
11599;DHT22;5855;48.840;9.188;2023-04-30T13:36:23;21.10;82.50
11599;DHT22;5855;48.840;9.188;2023-04-30T13:38:51;21.30;83.10
11599;DHT22;5855;48.840;9.188;2023-04-30T13:41:18;21.60;82.20
11599;DHT22;5855;48.840;9.188;2023-04-30T13:43:46;21.80;80.00
11599;DHT22;5855;48.840;9.188;2023-04-30T13:46:13;22.10;78.60
11599;DHT22;5855;48.840;9.188;2023-04-30T13:48:41;22.30;77.90
11599;DHT22;5855;48.840;9.188;2023-04-30T13:51:09;22.40;76.30
11599;DHT22;5855;48.840;9.188;2023-04-30T13:53:36;22.50;74.50
11599;DHT22;5855;48.840;9.188;2023-04-30T13:56:03;22.70;74.40
11599;DHT22;5855;48.840;9.188;2023-04-30T13:58:31;23.10;74.10
11599;DHT22;5855;48.840;9.188;2023-04-30T14:00:58;23.80;72.00
11599;DHT22;5855;48.840;9.188;2023-04-30T14:03:24;23.90;69.20
11599;DHT22;5855;48.840;9.188;2023-04-30T14:05:51;24.10;68.60
11599;DHT22;5855;48.840;9.188;2023-04-30T14:08:20;24.20;67.70
11599;DHT22;5855;48.840;9.188;2023-04-30T14:10:46;23.80;67.80
11599;DHT22;5855;48.840;9.188;2023-04-30T14:13:13;23.50;67.00
11599;DHT22;5855;48.840;9.188;2023-04-30T14:15:40;23.20;67.50
11599;DHT22;5855;48.840;9.188;2023-04-30T14:18:07;23.10;68.80
11599;DHT22;5855;48.840;9.188;2023-04-30T14:20:34;23.10;69.70
11599;DHT22;5855;48.840;9.188;2023-04-30T14:23:01;23.60;68.30
11599;DHT22;5855;48.840;9.188;2023-04-30T14:25:32;24.20;66.90
11599;DHT22;5855;48.840;9.188;2023-04-30T14:27:59;24.80;65.20
11599;DHT22;5855;48.840;9.188;2023-04-30T14:30:26;25.70;63.30
11599;DHT22;5855;48.840;9.188;2023-04-30T14:32:53;26.10;63.10
11599;DHT22;5855;48.840;9.188;2023-04-30T14:35:20;25.70;63.30
11599;DHT22;5855;48.840;9.188;2023-04-30T14:37:47;25.60;62.60
11599;DHT22;5855;48.840;9.188;2023-04-30T14:40:14;25.30;64.30
11599;DHT22;5855;48.840;9.188;2023-04-30T14:42:42;24.80;63.20
11599;DHT22;5855;48.840;9.188;2023-04-30T14:45:10;24.40;62.50
11599;DHT22;5855;48.840;9.188;2023-04-30T14:47:37;24.20;62.30
11599;DHT22;5855;48.840;9.188;2023-04-30T14:50:04;24.20;61.20
11599;DHT22;5855;48.840;9.188;2023-04-30T14:52:31;24.10;61.90
11599;DHT22;5855;48.840;9.188;2023-04-30T14:54:58;24.20;61.60
11599;DHT22;5855;48.840;9.188;2023-04-30T14:57:25;24.40;60.70
11599;DHT22;5855;48.840;9.188;2023-04-30T14:59:54;24.40;60.70
11599;DHT22;5855;48.840;9.188;2023-04-30T15:02:26;24.60;60.00
11599;DHT22;5855;48.840;9.188;2023-04-30T15:04:53;24.70;59.30
11599;DHT22;5855;48.840;9.188;2023-04-30T15:07:20;24.60;59.10
11599;DHT22;5855;48.840;9.188;2023-04-30T15:09:47;24.70;58.90
11599;DHT22;5855;48.840;9.188;2023-04-30T15:12:14;24.90;59.00
11599;DHT22;5855;48.840;9.188;2023-04-30T15:14:41;24.70;57.90
11599;DHT22;5855;48.840;9.188;2023-04-30T15:17:09;24.70;58.30
11599;DHT22;5855;48.840;9.188;2023-04-30T15:19:36;24.70;59.00
11599;DHT22;5855;48.840;9.188;2023-04-30T15:22:04;24.70;58.10
11599;DHT22;5855;48.840;9.188;2023-04-30T15:24:31;24.90;58.20
11599;DHT22;5855;48.840;9.188;2023-04-30T15:27:01;24.90;57.30
11599;DHT22;5855;48.840;9.188;2023-04-30T15:29:29;24.70;57.20
11599;DHT22;5855;48.840;9.188;2023-04-30T15:31:55;24.70;57.10
11599;DHT22;5855;48.840;9.188;2023-04-30T15:34:25;24.40;57.20
11599;DHT22;5855;48.840;9.188;2023-04-30T15:36:52;24.50;57.10
11599;DHT22;5855;48.840;9.188;2023-04-30T15:39:19;24.70;57.50
11599;DHT22;5855;48.840;9.188;2023-04-30T15:41:46;24.90;56.90
11599;DHT22;5855;48.840;9.188;2023-04-30T15:44:13;25.10;57.00
11599;DHT22;5855;48.840;9.188;2023-04-30T15:46:40;25.40;56.50
11599;DHT22;5855;48.840;9.188;2023-04-30T15:49:07;25.50;56.40
11599;DHT22;5855;48.840;9.188;2023-04-30T15:51:36;25.60;56.60
11599;DHT22;5855;48.840;9.188;2023-04-30T15:54:03;25.40;56.40
11599;DHT22;5855;48.840;9.188;2023-04-30T15:56:32;24.80;56.30
11599;DHT22;5855;48.840;9.188;2023-04-30T15:59:00;24.10;56.40